Time;durP1;ratioP1;P1;durP2;ratioP2;P2;SDS_P1;SDS_P2;PMS_P1;PMS_P2;Temp;Humidity;BMP_temperature;BMP_pressure;BME280_temperature;BME280_humidity;BME280_pressure;Samples;Min_cycle;Max_cycle;Signal;HPM_P1;HPM_P2
2022/11/24 00:01:36;;;;;;;28.77;9.52;;;;;;;6.57;100.00;100199.34;4895174;29;20040;-77
2022/11/24 00:04:04;;;;;;;34.95;7.40;;;;;;;6.54;100.00;100204.84;4894547;29;20104;-77
2022/11/24 00:06:32;;;;;;;39.92;9.48;;;;;;;6.45;100.00;100212.34;4895181;29;20504;-77
2022/11/24 00:08:58;;;;;;;36.47;8.48;;;;;;;6.35;100.00;100211.16;4886540;29;20056;-78
2022/11/24 00:11:30;;;;;;;31.02;8.77;;;;;;;6.36;100.00;100214.66;4894309;29;20083;-77
2022/11/24 00:13:57;;;;;;;44.28;9.25;;;;;;;6.37;100.00;100209.28;4894420;29;20103;-77
2022/11/24 00:16:34;;;;;;;48.42;8.90;;;;;;;6.35;100.00;100211.16;4895802;29;20084;-77
2022/11/24 00:19:01;;;;;;;38.72;10.27;;;;;;;6.41;100.00;100217.91;4893466;29;20781;-77
2022/11/24 00:21:28;;;;;;;43.78;7.88;;;;;;;6.39;100.00;100217.16;4895726;29;20049;-77
2022/11/24 00:23:55;;;;;;;27.15;6.90;;;;;;;6.38;100.00;100216.31;4896509;29;20051;-78
2022/11/24 00:26:23;;;;;;;41.55;8.05;;;;;;;6.27;100.00;100221.31;4894622;29;20591;-77
2022/11/24 00:28:50;;;;;;;35.58;7.93;;;;;;;6.35;100.00;100221.75;4896227;29;20080;-77
2022/11/24 00:31:20;;;;;;;36.30;7.75;;;;;;;6.27;100.00;100220.47;4894202;29;20116;-78
2022/11/24 00:33:47;;;;;;;25.90;7.43;;;;;;;6.29;100.00;100223.91;4895434;29;20059;-77
2022/11/24 00:36:13;;;;;;;45.92;8.25;;;;;;;6.23;100.00;100218.00;4896317;29;20036;-77
2022/11/24 00:38:38;;;;;;;31.67;7.05;;;;;;;6.34;100.00;100219.22;4896129;29;20057;-77
2022/11/24 00:41:04;;;;;;;28.13;8.27;;;;;;;6.21;100.00;100213.72;4880592;29;20045;-77
2022/11/24 00:43:30;;;;;;;38.83;8.73;;;;;;;6.21;100.00;100219.03;4898194;29;20193;-78
2022/11/24 00:45:55;;;;;;;35.47;7.57;;;;;;;6.24;100.00;100226.81;4898291;29;20048;-78
2022/11/24 00:48:21;;;;;;;30.88;7.82;;;;;;;6.33;100.00;100233.41;4898853;29;20052;-77
2022/11/24 00:51:02;;;;;;;28.02;6.72;;;;;;;6.27;100.00;100226.63;4897052;29;20052;-77
2022/11/24 00:53:28;;;;;;;33.35;8.27;;;;;;;6.18;100.00;100233.28;4896189;29;20393;-77
2022/11/24 00:55:54;;;;;;;31.02;7.22;;;;;;;6.31;100.00;100233.44;4896963;29;20484;-78
2022/11/24 00:58:21;;;;;;;36.47;7.30;;;;;;;6.19;100.00;100236.78;4900115;29;20119;-78
2022/11/24 01:00:46;;;;;;;30.92;7.78;;;;;;;6.20;100.00;100231.41;4896033;29;20442;-78
2022/11/24 01:03:13;;;;;;;22.75;5.47;;;;;;;6.19;100.00;100235.00;4895527;29;20055;-77
2022/11/24 01:05:39;;;;;;;29.52;5.38;;;;;;;6.21;100.00;100232.25;4895298;29;20508;-77
2022/11/24 01:08:04;;;;;;;33.58;6.63;;;;;;;6.31;100.00;100232.59;4893609;29;20056;-77
2022/11/24 01:10:31;;;;;;;33.45;8.20;;;;;;;6.30;100.00;100239.69;4877619;29;20040;-77
2022/11/24 01:12:56;;;;;;;33.13;7.88;;;;;;;6.31;100.00;100245.84;4895678;29;20044;-77
2022/11/24 01:15:22;;;;;;;33.92;8.57;;;;;;;6.26;100.00;100242.59;4895255;29;20083;-77
2022/11/24 01:17:48;;;;;;;38.25;9.05;;;;;;;6.33;100.00;100241.34;4886747;29;20500;-78
2022/11/24 01:20:16;;;;;;;41.97;11.32;;;;;;;6.33;100.00;100244.84;4893841;29;20036;-77
2022/11/24 01:22:42;;;;;;;50.40;10.90;;;;;;;6.36;100.00;100246.44;4894739;29;20037;-77
2022/11/24 01:25:10;;;;;;;40.92;10.60;;;;;;;6.30;100.00;100250.28;4895189;29;20194;-77
2022/11/24 01:27:37;;;;;;;37.42;7.50;;;;;;;6.23;100.00;100247.13;4893701;29;20131;-77
2022/11/24 01:30:04;;;;;;;21.95;5.75;;;;;;;6.19;100.00;100264.13;4894123;29;20521;-77
2022/11/24 01:32:32;;;;;;;24.85;5.45;;;;;;;6.18;100.00;100253.63;4893775;29;20043;-78
2022/11/24 01:35:01;;;;;;;23.80;5.13;;;;;;;6.21;100.00;100254.28;4893315;29;20131;-77
2022/11/24 01:37:26;;;;;;;22.38;4.50;;;;;;;6.36;100.00;100249.09;4894014;29;20143;-77
2022/11/24 01:39:54;;;;;;;23.17;4.45;;;;;;;6.39;100.00;100256.88;4893758;29;20052;-77
2022/11/24 01:42:20;;;;;;;49.95;5.60;;;;;;;6.48;100.00;100264.31;4883718;29;20040;-77
2022/11/24 01:44:47;;;;;;;24.40;4.80;;;;;;;6.49;100.00;100264.22;4893202;29;20489;-77
2022/11/24 01:47:31;;;;;;;28.17;4.63;;;;;;;6.52;100.00;100255.22;4891515;29;20044;-77
2022/11/24 01:50:02;;;;;;;22.27;5.03;;;;;;;6.60;100.00;100258.31;4891832;29;20053;-77
2022/11/24 01:52:37;;;;;;;27.73;4.82;;;;;;;6.51;100.00;100255.31;4893041;29;20068;-78
2022/11/24 01:55:09;;;;;;;20.45;4.68;;;;;;;6.53;100.00;100264.06;4893371;29;20037;-77
2022/11/24 01:58:00;;;;;;;27.00;4.47;;;;;;;6.56;100.00;100255.91;4893325;29;20044;-77
2022/11/24 02:00:26;;;;;;;23.42;4.50;;;;;;;6.56;100.00;100262.06;4872850;29;20076;-78
2022/11/24 02:02:52;;;;;;;21.75;4.75;;;;;;;6.44;100.00;100260.97;4893009;29;20132;-77
2022/11/24 02:05:23;;;;;;;21.95;3.53;;;;;;;6.45;100.00;100262.69;4893125;29;20048;-78
2022/11/24 02:07:51;;;;;;;33.40;4.45;;;;;;;6.63;100.00;100271.41;4893411;29;20041;-77
2022/11/24 02:10:16;;;;;;;21.83;4.03;;;;;;;6.62;100.00;100263.53;4891629;29;20068;-77
2022/11/24 02:12:48;;;;;;;27.67;3.92;;;;;;;6.56;100.00;100277.13;4891140;29;20040;-77
2022/11/24 02:15:14;;;;;;;24.95;4.30;;;;;;;6.53;100.00;100275.50;4893099;29;20047;-77
2022/11/24 02:17:40;;;;;;;29.45;4.90;;;;;;;6.41;100.00;100290.25;4888142;29;20028;-76
2022/11/24 02:20:08;;;;;;;20.27;4.47;;;;;;;6.42;100.00;100285.81;4892588;29;20040;-78
2022/11/24 02:22:46;;;;;;;28.73;5.45;;;;;;;6.44;100.00;100289.25;4891489;29;20045;-76
2022/11/24 02:25:29;;;;;;;27.42;3.80;;;;;;;6.40;100.00;100300.94;4892735;29;20052;-77
2022/11/24 02:27:57;;;;;;;21.92;3.90;;;;;;;6.29;100.00;100290.09;4887517;29;20047;-77
2022/11/24 02:30:23;;;;;;;35.38;5.50;;;;;;;6.26;100.00;100296.41;4889886;29;20091;-76
2022/11/24 02:32:50;;;;;;;17.65;3.90;;;;;;;6.18;100.00;100306.56;4892384;29;20056;-77
2022/11/24 02:35:16;;;;;;;25.15;5.20;;;;;;;6.29;100.00;100301.53;4889567;29;20048;-77
2022/11/24 02:37:41;;;;;;;22.73;4.40;;;;;;;6.28;100.00;100299.84;4891828;29;20067;-78
2022/11/24 02:40:07;;;;;;;24.90;4.82;;;;;;;6.40;100.00;100303.59;4891915;29;20478;-77
2022/11/24 02:42:41;;;;;;;27.15;6.88;;;;;;;6.46;100.00;100304.09;4892152;29;20068;-77
2022/11/24 02:45:08;;;;;;;30.95;5.05;;;;;;;6.54;100.00;100303.69;4885956;29;20059;-77
2022/11/24 02:47:34;;;;;;;25.10;5.00;;;;;;;6.58;100.00;100307.03;4892059;29;20040;-78
2022/11/24 02:49:59;;;;;;;30.30;4.50;;;;;;;6.64;100.00;100309.34;4891770;29;20055;-77
2022/11/24 02:52:25;;;;;;;33.65;4.88;;;;;;;6.71;100.00;100308.91;4892591;29;20033;-77
2022/11/24 02:54:50;;;;;;;25.60;5.45;;;;;;;6.75;100.00;100322.84;4890555;29;20109;-77
2022/11/24 02:57:16;;;;;;;30.73;4.78;;;;;;;6.79;100.00;100323.53;4892068;29;20044;-77
2022/11/24 02:59:41;;;;;;;17.33;4.88;;;;;;;6.67;100.00;100323.25;4891785;29;20048;-77
2022/11/24 03:02:07;;;;;;;21.10;5.25;;;;;;;6.58;100.00;100317.63;4884037;29;20045;-77
2022/11/24 03:04:32;;;;;;;33.85;6.40;;;;;;;6.66;100.00;100316.25;4892067;29;20049;-78
2022/11/24 03:06:58;;;;;;;19.23;5.50;;;;;;;6.76;100.00;100313.94;4890337;29;20043;-77
2022/11/24 03:09:23;;;;;;;21.35;7.88;;;;;;;6.73;100.00;100309.69;4891449;29;20650;-77
2022/11/24 03:11:49;;;;;;;32.20;5.18;;;;;;;6.73;100.00;100314.13;4890824;29;20048;-78
2022/11/24 03:14:15;;;;;;;44.40;6.35;;;;;;;6.61;100.00;100315.66;4892352;29;20037;-78
2022/11/24 03:16:40;;;;;;;30.42;4.50;;;;;;;6.49;100.00;100311.03;4891536;29;20040;-77
2022/11/24 03:19:05;;;;;;;17.15;4.55;;;;;;;6.64;100.00;100315.50;4890886;29;20049;-77
2022/11/24 03:21:31;;;;;;;26.52;5.28;;;;;;;6.45;100.00;100313.00;4891314;29;20048;-77
2022/11/24 03:23:57;;;;;;;21.88;5.10;;;;;;;6.64;100.00;100318.13;4894906;29;20032;-77
2022/11/24 03:26:23;;;;;;;16.77;3.90;;;;;;;6.69;100.00;100317.88;4890922;29;20131;-77
2022/11/24 03:28:51;;;;;;;28.98;4.32;;;;;;;6.67;100.00;100322.41;4873874;29;20086;-77
2022/11/24 03:31:17;;;;;;;24.95;4.57;;;;;;;6.72;100.00;100323.84;4889290;29;20502;-78
2022/11/24 03:33:42;;;;;;;30.45;4.45;;;;;;;6.56;100.00;100317.69;4890909;29;20066;-77
2022/11/24 03:36:08;;;;;;;31.92;4.53;;;;;;;6.49;100.00;100311.03;4890863;29;20032;-77
2022/11/24 03:38:33;;;;;;;31.25;5.57;;;;;;;6.42;100.00;100318.44;4891211;29;20064;-77
2022/11/24 03:40:59;;;;;;;23.23;5.20;;;;;;;6.50;100.00;100320.69;4891655;29;20044;-78
2022/11/24 03:43:24;;;;;;;22.85;4.43;;;;;;;6.36;100.00;100318.78;4891918;29;20477;-77
2022/11/24 03:45:50;;;;;;;29.33;5.57;;;;;;;6.42;100.00;100334.34;4892594;29;20685;-78
2022/11/24 03:48:17;;;;;;;22.52;4.97;;;;;;;6.47;100.00;100339.38;4890352;29;20059;-77
2022/11/24 03:50:43;;;;;;;26.75;4.97;;;;;;;6.45;100.00;100326.25;4891197;29;20051;-77
2022/11/24 03:53:09;;;;;;;27.38;5.65;;;;;;;6.46;100.00;100333.22;4891048;29;20766;-77
2022/11/24 03:55:34;;;;;;;26.80;4.75;;;;;;;6.52;100.00;100340.00;4891728;29;20045;-77
2022/11/24 03:58:00;;;;;;;27.88;6.65;;;;;;;6.48;100.00;100346.41;4889820;29;20052;-77
2022/11/24 04:00:26;;;;;;;36.72;6.55;;;;;;;6.45;100.00;100344.78;4891127;29;20056;-77
2022/11/24 04:02:51;;;;;;;23.05;5.00;;;;;;;6.41;100.00;100347.66;4889218;29;20048;-77
2022/11/24 04:05:17;;;;;;;39.60;5.40;;;;;;;6.41;100.00;100351.16;4889808;29;20052;-78
2022/11/24 04:07:42;;;;;;;26.33;5.30;;;;;;;6.47;100.00;100360.56;4890985;29;20064;-77
2022/11/24 04:10:09;;;;;;;19.27;4.70;;;;;;;6.36;100.00;100361.16;4891836;29;20490;-77
2022/11/24 04:12:44;;;;;;;30.88;5.18;;;;;;;6.32;100.00;100351.66;4879610;29;20037;-77
2022/11/24 04:15:15;;;;;;;28.15;5.15;;;;;;;6.46;100.00;100369.47;4894787;29;20044;-77
2022/11/24 04:17:40;;;;;;;34.50;4.80;;;;;;;6.36;100.00;100369.09;4896199;29;20044;-77
2022/11/24 04:20:07;;;;;;;29.20;5.13;;;;;;;6.45;100.00;100365.09;4890047;29;20644;-77
2022/11/24 04:22:32;;;;;;;51.63;9.70;;;;;;;6.38;100.00;100375.19;4889154;29;20059;-77
2022/11/24 04:24:58;;;;;;;25.05;7.05;;;;;;;6.43;100.00;100367.00;4879842;29;20045;-77
2022/11/24 04:27:23;;;;;;;40.67;7.00;;;;;;;6.55;100.00;100368.97;4897851;29;20040;-77
2022/11/24 04:29:49;;;;;;;37.13;6.22;;;;;;;6.52;100.00;100370.91;4898242;29;20606;-77
2022/11/24 04:32:16;;;;;;;35.63;6.25;;;;;;;6.71;100.00;100367.19;4897813;29;20051;-81
2022/11/24 04:34:41;;;;;;;32.45;5.78;;;;;;;6.75;100.00;100370.53;4901781;29;20499;-76
2022/11/24 04:37:07;;;;;;;30.25;5.43;;;;;;;6.70;100.00;100361.97;4888312;29;20048;-77
2022/11/24 04:39:35;;;;;;;37.13;5.45;;;;;;;6.64;100.00;100378.22;4883991;29;20142;-77
2022/11/24 04:42:01;;;;;;;36.20;4.85;;;;;;;6.56;100.00;100385.72;4879526;29;20092;-77
2022/11/24 04:44:26;;;;;;;35.47;4.63;;;;;;;6.55;100.00;100384.00;4902850;29;20045;-77
2022/11/24 04:46:52;;;;;;;22.15;4.07;;;;;;;6.47;100.00;100387.91;4896525;29;20358;-77
2022/11/24 04:49:18;;;;;;;29.50;3.80;;;;;;;6.40;100.00;100397.13;4896655;29;20401;-77
2022/11/24 04:51:43;;;;;;;30.08;4.63;;;;;;;6.53;100.00;100393.84;4909485;29;20086;-76
2022/11/24 04:54:11;;;;;;;29.77;4.97;;;;;;;6.48;100.00;100397.59;4895631;29;20041;-78
2022/11/24 04:56:37;;;;;;;26.15;4.85;;;;;;;6.46;100.00;100403.88;4905175;29;20445;-77
2022/11/24 04:59:03;;;;;;;33.67;5.28;;;;;;;6.45;100.00;100400.38;4894828;29;20406;-77
2022/11/24 05:01:28;;;;;;;41.05;5.30;;;;;;;6.37;100.00;100402.59;4894732;29;20092;-77
2022/11/24 05:03:55;;;;;;;27.30;6.95;;;;;;;6.31;100.00;100404.72;4894302;29;20040;-78
2022/11/24 05:06:22;;;;;;;29.63;5.35;;;;;;;6.39;100.00;100402.53;4885856;29;20086;-76
2022/11/24 05:08:51;;;;;;;27.27;5.30;;;;;;;6.33;100.00;100403.72;4893027;29;20052;-77
2022/11/24 05:11:18;;;;;;;25.38;5.47;;;;;;;6.38;100.00;100398.16;4891336;29;20049;-77
2022/11/24 05:13:44;;;;;;;29.08;5.07;;;;;;;6.38;100.00;100396.38;4890780;29;20561;-77
2022/11/24 05:16:10;;;;;;;32.53;4.97;;;;;;;6.41;100.00;100403.28;4891469;29;20048;-77
2022/11/24 05:18:36;;;;;;;27.27;6.68;;;;;;;6.38;100.00;100403.47;4880159;29;20048;-77
2022/11/24 05:21:02;;;;;;;26.23;4.32;;;;;;;6.57;100.00;100405.97;4876143;29;20047;-77
2022/11/24 05:23:31;;;;;;;34.60;5.60;;;;;;;6.58;100.00;100410.34;4886943;29;20439;-77
2022/11/24 05:26:00;;;;;;;33.53;6.93;;;;;;;6.65;100.00;100414.38;4893585;29;20051;-78
2022/11/24 05:28:26;;;;;;;25.17;5.97;;;;;;;6.69;100.00;100415.91;4894284;29;20113;-77
2022/11/24 05:30:51;;;;;;;37.15;7.30;;;;;;;6.72;100.00;100423.69;4894950;29;20037;-77
2022/11/24 05:33:21;;;;;;;52.65;6.82;;;;;;;6.86;100.00;100434.38;4900606;29;20036;-77
2022/11/24 05:35:48;;;;;;;42.13;7.10;;;;;;;6.90;100.00;100427.97;4897708;29;20036;-77
2022/11/24 05:38:15;;;;;;;42.38;7.95;;;;;;;6.93;100.00;100438.44;4892961;29;20063;-77
2022/11/24 05:40:41;;;;;;;28.65;6.57;;;;;;;7.06;100.00;100445.69;4896629;29;20060;-78
2022/11/24 05:43:11;;;;;;;20.55;6.43;;;;;;;7.02;100.00;100445.00;4896282;29;20755;-78
2022/11/24 05:45:37;;;;;;;27.55;4.45;;;;;;;7.07;100.00;100450.91;4906840;29;20461;-76
2022/11/24 05:48:05;;;;;;;31.95;5.05;;;;;;;7.08;100.00;100451.75;4891514;29;20045;-78
2022/11/24 05:50:30;;;;;;;22.95;4.70;;;;;;;7.04;100.00;100461.69;4892889;29;20153;-77
2022/11/24 05:52:55;;;;;;;33.97;4.70;;;;;;;7.07;100.00;100461.50;4893251;29;20071;-79
2022/11/24 05:55:21;;;;;;;22.58;6.03;;;;;;;7.04;100.00;100464.34;4890882;29;20041;-78
2022/11/24 05:57:46;;;;;;;20.10;3.53;;;;;;;7.11;100.00;100465.72;4892368;29;20048;-78
2022/11/24 06:00:13;;;;;;;38.42;6.05;;;;;;;7.10;100.00;100469.31;4891721;29;20037;-77
2022/11/24 06:02:39;;;;;;;21.20;5.57;;;;;;;7.11;100.00;100481.63;4890628;29;20044;-78
2022/11/24 06:05:05;;;;;;;22.13;4.28;;;;;;;7.10;100.00;100479.91;4894640;29;20075;-77
2022/11/24 06:07:30;;;;;;;25.75;4.00;;;;;;;7.17;100.00;100491.03;4906097;29;20042;-77
2022/11/24 06:09:56;;;;;;;10.38;2.72;;;;;;;7.11;100.00;100484.28;4895081;29;20060;-75
2022/11/24 06:12:21;;;;;;;18.13;3.55;;;;;;;7.10;100.00;100502.91;4899492;29;20036;-76
2022/11/24 06:14:47;;;;;;;9.93;2.50;;;;;;;7.08;100.00;100508.31;4893593;29;20040;-77
2022/11/24 06:17:12;;;;;;;11.40;2.25;;;;;;;7.08;100.00;100518.03;4880847;29;20049;-76
2022/11/24 06:19:38;;;;;;;10.82;2.17;;;;;;;7.11;100.00;100515.22;4887563;29;20044;-77
2022/11/24 06:22:03;;;;;;;14.88;2.60;;;;;;;7.09;100.00;100522.41;4885900;29;20056;-76
2022/11/24 06:24:29;;;;;;;9.30;2.72;;;;;;;7.11;100.00;100523.19;4886658;29;20110;-76
2022/11/24 06:26:54;;;;;;;11.52;3.38;;;;;;;7.06;100.00;100530.53;4890853;29;20040;-77
2022/11/24 06:29:19;;;;;;;10.15;2.05;;;;;;;7.08;100.00;100524.22;4886713;29;20055;-77
2022/11/24 06:31:45;;;;;;;8.93;2.63;;;;;;;7.12;100.00;100530.19;4885833;29;20037;-77
2022/11/24 06:34:11;;;;;;;3.25;1.38;;;;;;;7.10;100.00;100538.25;4886199;29;20049;-76
2022/11/24 06:36:37;;;;;;;10.77;2.40;;;;;;;7.12;100.00;100554.91;4903338;29;20039;-75
2022/11/24 06:39:04;;;;;;;5.60;1.80;;;;;;;7.12;100.00;100554.06;4900014;29;20055;-77
2022/11/24 06:41:29;;;;;;;4.15;1.58;;;;;;;7.13;100.00;100558.41;4895900;29;20047;-76
2022/11/24 06:43:54;;;;;;;12.32;2.20;;;;;;;7.11;100.00;100569.09;4892836;29;20044;-77
2022/11/24 06:46:21;;;;;;;10.68;2.22;;;;;;;7.12;100.00;100576.13;4903396;29;20055;-77
2022/11/24 06:48:46;;;;;;;8.43;1.40;;;;;;;7.11;100.00;100584.16;4892816;29;20148;-77
2022/11/24 06:51:12;;;;;;;10.88;2.10;;;;;;;7.11;100.00;100579.72;4883299;29;20045;-76
2022/11/24 06:53:39;;;;;;;8.45;1.77;;;;;;;7.14;100.00;100581.38;4886413;29;20079;-76
2022/11/24 06:56:07;;;;;;;8.82;1.98;;;;;;;7.12;100.00;100586.72;4892579;29;20025;-76
2022/11/24 06:58:32;;;;;;;9.88;1.70;;;;;;;7.09;100.00;100592.22;4890025;29;20058;-77
2022/11/24 07:00:58;;;;;;;11.38;1.77;;;;;;;7.11;100.00;100598.28;4890294;29;20041;-76
2022/11/24 07:03:23;;;;;;;7.15;1.95;;;;;;;7.11;100.00;100600.94;4889261;29;20048;-77
2022/11/24 07:05:55;;;;;;;9.75;2.20;;;;;;;7.12;100.00;100607.09;4892116;29;20044;-76
2022/11/24 07:08:20;;;;;;;6.43;1.88;;;;;;;7.03;100.00;100612.88;4890998;29;20103;-77
2022/11/24 07:10:45;;;;;;;8.35;2.28;;;;;;;6.99;100.00;100621.00;4891391;29;20048;-76
2022/11/24 07:13:11;;;;;;;10.88;2.58;;;;;;;7.03;100.00;100619.06;4892257;29;20067;-77
2022/11/24 07:15:36;;;;;;;11.63;3.03;;;;;;;7.00;100.00;100624.50;4889103;29;20449;-77
2022/11/24 07:18:02;;;;;;;10.60;2.45;;;;;;;6.98;100.00;100629.03;4889166;29;20044;-77
2022/11/24 07:20:27;;;;;;;8.30;2.22;;;;;;;7.00;100.00;100628.00;4890970;29;20040;-77
2022/11/24 07:22:56;;;;;;;6.18;2.40;;;;;;;7.02;100.00;100635.88;4888751;29;20052;-77
2022/11/24 07:25:26;;;;;;;10.45;2.60;;;;;;;6.99;100.00;100644.84;4892128;29;20072;-77
2022/11/24 07:27:58;;;;;;;7.68;2.28;;;;;;;6.97;100.00;100641.41;4874731;29;20064;-78
2022/11/24 07:30:25;;;;;;;14.90;3.30;;;;;;;7.00;100.00;100656.31;4878286;29;20063;-76
2022/11/24 07:32:50;;;;;;;13.32;3.72;;;;;;;7.05;100.00;100653.44;4890350;29;20043;-77
2022/11/24 07:35:16;;;;;;;11.10;4.25;;;;;;;7.07;100.00;100655.03;4891890;29;20044;-77
2022/11/24 07:37:44;;;;;;;12.98;3.22;;;;;;;7.05;100.00;100656.06;4875366;29;20040;-77
2022/11/24 07:40:10;;;;;;;16.98;5.18;;;;;;;7.14;100.00;100675.03;4892970;29;20048;-77
2022/11/24 07:42:35;;;;;;;12.90;5.07;;;;;;;7.18;100.00;100667.78;4893639;29;20106;-78
2022/11/24 07:45:01;;;;;;;22.95;6.53;;;;;;;7.25;100.00;100682.41;4891556;29;20048;-77
2022/11/24 07:47:27;;;;;;;19.70;5.90;;;;;;;7.32;100.00;100682.94;4892231;29;20037;-76
2022/11/24 07:49:52;;;;;;;38.67;7.80;;;;;;;7.38;100.00;100679.97;4896411;29;20543;-77
2022/11/24 07:52:17;;;;;;;17.20;6.45;;;;;;;7.44;100.00;100688.47;4905371;29;20406;-77
2022/11/24 07:54:43;;;;;;;17.00;6.70;;;;;;;7.49;100.00;100689.09;4896114;29;20048;-76
2022/11/24 07:57:08;;;;;;;23.60;6.95;;;;;;;7.51;100.00;100703.13;4896660;29;20067;-76
2022/11/24 07:59:34;;;;;;;15.13;5.57;;;;;;;7.58;100.00;100697.47;4896317;29;20052;-76
2022/11/24 08:01:59;;;;;;;14.77;7.07;;;;;;;7.65;100.00;100701.53;4878806;29;20053;-77
2022/11/24 08:04:25;;;;;;;23.58;6.80;;;;;;;7.69;100.00;100716.34;4894028;29;20032;-77
2022/11/24 08:06:50;;;;;;;15.45;6.05;;;;;;;7.67;100.00;100712.91;4895290;29;20081;-76
2022/11/24 08:09:16;;;;;;;11.02;6.00;;;;;;;7.67;100.00;100723.53;4895465;29;20059;-76
2022/11/24 08:11:41;;;;;;;19.08;6.18;;;;;;;7.71;100.00;100728.59;4896001;29;20142;-76
2022/11/24 08:14:07;;;;;;;16.33;7.00;;;;;;;7.80;100.00;100727.25;4885115;29;20049;-76
2022/11/24 08:16:32;;;;;;;23.05;6.65;;;;;;;7.72;100.00;100735.59;4896727;29;20041;-77
2022/11/24 08:18:57;;;;;;;23.33;7.07;;;;;;;7.75;100.00;100734.59;4895801;29;20040;-77
2022/11/24 08:21:23;;;;;;;17.85;6.63;;;;;;;7.78;100.00;100747.69;4895190;29;20044;-77
2022/11/24 08:23:53;;;;;;;22.98;7.40;;;;;;;7.79;100.00;100737.00;4897306;29;20071;-75
2022/11/24 08:26:18;;;;;;;16.92;7.22;;;;;;;7.77;100.00;100754.81;4896621;29;20055;-77
2022/11/24 08:28:45;;;;;;;20.83;7.65;;;;;;;7.79;100.00;100746.78;4896903;29;20045;-76
2022/11/24 08:31:13;;;;;;;15.80;7.05;;;;;;;7.84;100.00;100755.34;4895126;29;20171;-75
2022/11/24 08:33:40;;;;;;;19.35;9.05;;;;;;;7.72;100.00;100753.34;4882048;29;20766;-76
2022/11/24 08:36:08;;;;;;;20.88;9.13;;;;;;;7.74;100.00;100762.94;4896066;29;20060;-77
2022/11/24 08:38:34;;;;;;;19.33;7.68;;;;;;;7.76;100.00;100768.16;4895875;29;20040;-78
2022/11/24 08:41:01;;;;;;;23.48;8.00;;;;;;;7.68;100.00;100770.34;4887268;29;20088;-76
2022/11/24 08:43:27;;;;;;;21.85;8.32;;;;;;;7.68;100.00;100771.25;4893133;29;20056;-76
2022/11/24 08:45:52;;;;;;;21.65;7.72;;;;;;;7.72;100.00;100767.47;4897041;29;20118;-77
2022/11/24 08:48:18;;;;;;;18.50;7.60;;;;;;;7.86;100.00;100772.03;4894544;29;20040;-77
2022/11/24 08:50:43;;;;;;;20.75;6.97;;;;;;;7.93;100.00;100777.88;4894706;29;20040;-76
2022/11/24 08:53:09;;;;;;;14.13;6.75;;;;;;;7.88;100.00;100783.47;4892864;29;20064;-76
2022/11/24 08:55:34;;;;;;;19.30;5.68;;;;;;;7.88;100.00;100774.59;4879915;29;20045;-76
2022/11/24 08:57:59;;;;;;;15.95;6.35;;;;;;;7.89;100.00;100779.00;4893647;29;20047;-77
2022/11/24 09:00:25;;;;;;;22.15;5.45;;;;;;;7.97;100.00;100782.94;4891590;29;20383;-77
2022/11/24 09:02:57;;;;;;;18.70;5.15;;;;;;;8.13;100.00;100795.41;4889868;29;20036;-77
2022/11/24 09:05:24;;;;;;;15.93;6.10;;;;;;;8.11;100.00;100791.97;4892453;29;20077;-77
2022/11/24 09:07:49;;;;;;;14.35;4.97;;;;;;;8.16;100.00;100796.09;4892982;29;20623;-76
2022/11/24 09:10:17;;;;;;;14.70;4.70;;;;;;;8.09;100.00;100796.53;4892580;29;20036;-76
2022/11/24 09:12:44;;;;;;;17.50;6.18;;;;;;;8.18;100.00;100791.56;4888166;29;20093;-76
2022/11/24 09:15:15;;;;;;;11.15;4.35;;;;;;;8.24;100.00;100795.69;4893280;29;20044;-76
2022/11/24 09:17:41;;;;;;;11.75;3.72;;;;;;;8.27;100.00;100804.34;4893489;29;20086;-76
2022/11/24 09:20:06;;;;;;;12.00;4.85;;;;;;;8.35;100.00;100809.25;4893937;29;20040;-76
2022/11/24 09:22:32;;;;;;;18.05;5.13;;;;;;;8.43;100.00;100806.19;4881584;29;20045;-76
2022/11/24 09:24:57;;;;;;;15.77;3.78;;;;;;;8.42;100.00;100809.78;4888325;29;20103;-77
2022/11/24 09:27:23;;;;;;;10.50;3.40;;;;;;;8.33;100.00;100811.09;4883795;29;20032;-76
2022/11/24 09:29:48;;;;;;;14.70;4.13;;;;;;;8.38;100.00;100811.75;4895250;29;20040;-77
2022/11/24 09:32:13;;;;;;;19.42;3.95;;;;;;;8.35;100.00;100811.91;4901598;29;20115;-76
2022/11/24 09:34:39;;;;;;;15.23;3.67;;;;;;;8.35;100.00;100811.91;4892149;29;20074;-76
2022/11/24 09:37:05;;;;;;;18.20;5.00;;;;;;;8.27;100.00;100827.38;4892963;29;20046;-76
2022/11/24 09:39:30;;;;;;;15.45;3.83;;;;;;;8.17;100.00;100831.47;4891976;29;20135;-76
2022/11/24 09:42:15;;;;;;;14.00;3.47;;;;;;;8.09;100.00;100823.09;4892635;29;20045;-77
2022/11/24 09:45:05;;;;;;;18.27;4.32;;;;;;;8.21;100.00;100836.53;4892261;29;20049;-76
2022/11/24 09:47:41;;;;;;;18.48;4.68;;;;;;;8.39;100.00;100848.03;4892221;29;20056;-77
2022/11/24 09:50:21;;;;;;;15.45;3.60;;;;;;;8.43;100.00;100846.91;4892394;29;20077;-76
2022/11/24 09:53:02;;;;;;;17.58;3.00;;;;;;;8.41;100.00;100858.56;4888535;29;20822;-77
2022/11/24 09:55:52;;;;;;;14.40;3.80;;;;;;;8.39;100.00;100857.81;4890416;29;20067;-76
2022/11/24 09:58:33;;;;;;;11.73;2.85;;;;;;;8.50;100.00;100856.25;4892478;29;20060;-76
2022/11/24 10:01:00;;;;;;;12.57;3.88;;;;;;;8.69;100.00;100873.88;4891876;29;20070;-76
2022/11/24 10:03:35;;;;;;;14.57;3.35;;;;;;;8.65;100.00;100872.31;4892110;29;20040;-76
2022/11/24 10:06:20;;;;;;;9.95;2.67;;;;;;;8.71;100.00;100862.19;4892756;29;20051;-76
2022/11/24 10:09:33;;;;;;;12.60;3.83;;;;;;;8.76;100.00;100861.94;4892627;29;20044;-77
2022/11/24 10:12:26;;;;;;;21.00;3.58;;;;;;;8.93;100.00;100872.47;4899690;29;20047;-75
2022/11/24 10:14:55;;;;;;;11.40;2.60;;;;;;;8.93;100.00;100875.16;4889899;29;20502;-77
2022/11/24 10:17:35;;;;;;;12.73;3.58;;;;;;;8.89;100.00;100880.75;4891614;29;20520;-76
2022/11/24 10:20:13;;;;;;;10.55;2.83;;;;;;;8.87;100.00;100882.63;4889737;29;20055;-75
2022/11/24 10:22:41;;;;;;;10.25;2.95;;;;;;;8.91;100.00;100885.03;4891429;29;20100;-75
2022/11/24 10:25:17;;;;;;;11.65;2.78;;;;;;;8.99;100.00;100895.25;4891086;29;20047;-76
2022/11/24 10:27:45;;;;;;;14.13;2.92;;;;;;;8.95;100.00;100899.00;4891390;29;20040;-76
2022/11/24 10:30:14;;;;;;;14.18;3.00;;;;;;;8.99;100.00;100895.25;4889619;29;20044;-76
2022/11/24 10:32:45;;;;;;;13.65;3.13;;;;;;;9.02;100.00;100895.06;4890913;29;20120;-77
2022/11/24 10:35:25;;;;;;;14.30;3.53;;;;;;;8.99;100.00;100898.75;4889578;29;20497;-77
2022/11/24 10:38:00;;;;;;;17.23;2.97;;;;;;;9.06;100.00;100901.94;4890913;29;20044;-75
2022/11/24 10:40:35;;;;;;;19.08;3.63;;;;;;;9.15;100.00;100912.06;4890760;29;20044;-76
2022/11/24 10:43:00;;;;;;;11.20;3.08;;;;;;;9.19;100.00;100910.09;4878832;29;20180;-77
2022/11/24 10:45:28;;;;;;;12.63;3.42;;;;;;;9.25;100.00;100905.28;4888239;29;20434;-76
2022/11/24 10:47:53;;;;;;;15.30;3.20;;;;;;;9.16;100.00;100911.09;4905473;29;20045;-76
2022/11/24 10:50:21;;;;;;;11.63;3.50;;;;;;;9.20;100.00;100920.63;4889530;29;20036;-76
2022/11/24 10:53:29;;;;;;;14.50;3.38;;;;;;;9.14;100.00;100922.78;4893206;29;20494;-77
2022/11/24 10:55:57;;;;;;;23.05;3.55;;;;;;;9.24;100.00;100924.00;4887201;29;20421;-76
2022/11/24 10:58:48;;;;;;;12.60;4.32;;;;;;;9.25;100.00;100925.69;4892735;29;20670;-76
2022/11/24 11:01:19;;;;;;;12.48;3.00;;;;;;;9.19;100.00;100931.38;4889529;29;20080;-76
2022/11/24 11:03:54;;;;;;;15.40;3.58;;;;;;;9.45;100.00;100922.75;4892418;29;20055;-76
2022/11/24 11:06:24;;;;;;;17.90;2.88;;;;;;;9.48;100.00;100922.56;4890618;29;20121;-76
2022/11/24 11:09:16;;;;;;;12.07;2.38;;;;;;;9.49;100.00;100924.31;4890016;29;20257;-76
2022/11/24 11:11:42;;;;;;;15.82;3.00;;;;;;;9.57;100.00;100930.03;4891871;29;20585;-76
2022/11/24 11:14:11;;;;;;;7.45;2.30;;;;;;;9.53;100.00;100935.59;4880030;29;20045;-76
2022/11/24 11:16:42;;;;;;;19.20;3.80;;;;;;;9.49;100.00;100929.63;4891254;29;20048;-76
2022/11/24 11:19:31;;;;;;;25.90;4.80;;;;;;;9.51;100.00;100940.19;4892646;29;20068;-76
2022/11/24 11:22:10;;;;;;;22.15;2.97;;;;;;;9.44;100.00;100937.03;4881044;29;20044;-76